createdAt,value
2022-12-07T00:00:48.919Z,19.41
2022-12-07T00:03:15.745Z,20.05
2022-12-07T00:05:42.509Z,20.48
2022-12-07T00:08:09.332Z,20.68
2022-12-07T00:10:36.095Z,20.82
2022-12-07T00:13:02.843Z,20.93
2022-12-07T00:15:29.575Z,21.09
2022-12-07T00:17:56.332Z,21.17
2022-12-07T00:20:23.080Z,21.20
2022-12-07T00:22:49.801Z,21.41
2022-12-07T00:25:16.516Z,21.43
2022-12-07T00:27:43.276Z,21.59
2022-12-07T00:30:10.028Z,21.61
2022-12-07T00:32:36.786Z,21.65
2022-12-07T00:35:03.585Z,21.12
2022-12-07T00:37:30.312Z,19.02
2022-12-07T00:39:57.049Z,17.73
2022-12-07T00:42:23.828Z,19.00
2022-12-07T00:44:50.554Z,19.89
2022-12-07T00:47:17.313Z,20.26
2022-12-07T00:49:44.068Z,20.61
2022-12-07T00:52:10.900Z,20.73
2022-12-07T00:54:37.641Z,20.91
2022-12-07T00:57:04.413Z,21.02
2022-12-07T00:59:31.158Z,21.12
2022-12-07T01:01:57.922Z,21.24
2022-12-07T01:04:24.802Z,21.29
2022-12-07T01:06:51.539Z,21.43
2022-12-07T01:09:18.277Z,21.49
2022-12-07T01:11:45.066Z,21.54
2022-12-07T01:14:11.820Z,21.63
2022-12-07T01:16:38.691Z,20.58
2022-12-07T01:19:05.633Z,18.48
2022-12-07T01:21:35.637Z,17.55
2022-12-07T01:24:02.402Z,19.22
2022-12-07T01:26:29.144Z,19.95
2022-12-07T01:28:56.331Z,20.34
2022-12-07T01:31:23.249Z,20.60
2022-12-07T01:33:50.044Z,20.72
2022-12-07T01:36:16.804Z,20.92
2022-12-07T01:38:43.587Z,21.08
2022-12-07T01:41:10.382Z,21.16
2022-12-07T01:43:37.148Z,21.21
2022-12-07T01:46:03.933Z,21.33
2022-12-07T01:48:30.731Z,21.42
2022-12-07T01:50:57.449Z,21.50
2022-12-07T01:53:24.176Z,21.59
2022-12-07T01:55:50.945Z,21.68
2022-12-07T01:58:17.667Z,20.72
2022-12-07T02:00:44.425Z,18.60
2022-12-07T02:03:11.167Z,17.56
2022-12-07T02:05:37.899Z,19.27
2022-12-07T02:08:04.698Z,20.02
2022-12-07T02:10:31.508Z,20.35
2022-12-07T02:12:58.276Z,20.52
2022-12-07T02:15:25.015Z,20.70
2022-12-07T02:17:51.767Z,20.91
2022-12-07T02:20:18.544Z,21.00
2022-12-07T02:22:45.269Z,21.21
2022-12-07T02:25:12.018Z,21.18
2022-12-07T02:27:38.838Z,21.29
2022-12-07T02:30:05.913Z,21.35
2022-12-07T02:32:32.784Z,21.49
2022-12-07T02:34:59.622Z,21.54
2022-12-07T02:37:26.352Z,21.60
2022-12-07T02:39:53.128Z,21.68
2022-12-07T02:42:19.882Z,20.81
2022-12-07T02:44:46.718Z,18.52
2022-12-07T02:47:13.789Z,17.42
2022-12-07T02:49:40.798Z,19.07
2022-12-07T02:52:07.515Z,19.87
2022-12-07T02:54:34.311Z,20.33
2022-12-07T02:57:01.061Z,20.52
2022-12-07T02:59:27.793Z,20.74
2022-12-07T03:01:54.704Z,20.89
2022-12-07T03:04:21.489Z,21.00
2022-12-07T03:06:48.215Z,21.17
2022-12-07T03:09:14.965Z,21.15
2022-12-07T03:11:41.694Z,21.29
2022-12-07T03:14:08.413Z,21.32
2022-12-07T03:16:36.092Z,21.42
2022-12-07T03:19:02.841Z,21.56
2022-12-07T03:21:29.594Z,21.61
2022-12-07T03:23:56.339Z,21.41
2022-12-07T03:26:23.063Z,18.74
2022-12-07T03:28:49.808Z,17.45
2022-12-07T03:31:16.597Z,18.57
2022-12-07T03:33:43.380Z,19.71
2022-12-07T03:36:10.107Z,20.08
2022-12-07T03:38:36.843Z,20.45
2022-12-07T03:41:03.632Z,20.67
2022-12-07T03:43:30.505Z,20.86
2022-12-07T03:45:57.267Z,20.96
2022-12-07T03:48:25.334Z,21.01
2022-12-07T03:50:52.056Z,21.12
2022-12-07T03:53:18.786Z,21.22
2022-12-07T03:55:45.513Z,21.37
2022-12-07T03:58:12.263Z,21.39
2022-12-07T04:00:39.010Z,21.55
2022-12-07T04:03:06.066Z,21.54
2022-12-07T04:05:32.867Z,21.64
2022-12-07T04:07:59.662Z,21.70
2022-12-07T04:10:26.471Z,19.77
2022-12-07T04:12:53.210Z,18.31
2022-12-07T04:15:19.946Z,17.88
2022-12-07T04:17:46.676Z,19.52
2022-12-07T04:20:13.407Z,20.24
2022-12-07T04:22:40.153Z,20.46
2022-12-07T04:25:06.879Z,20.73
2022-12-07T04:27:33.603Z,20.83
2022-12-07T04:30:00.927Z,21.02
2022-12-07T04:32:28.019Z,21.06
2022-12-07T04:34:56.000Z,21.12
2022-12-07T04:37:22.969Z,21.19
2022-12-07T04:39:49.731Z,21.30
2022-12-07T04:42:16.475Z,21.34
2022-12-07T04:44:43.222Z,21.53
2022-12-07T04:47:10.087Z,21.54
2022-12-07T04:49:37.017Z,21.60
2022-12-07T04:52:03.855Z,21.11
2022-12-07T04:54:30.585Z,19.01
2022-12-07T04:56:57.312Z,17.54
2022-12-07T04:59:24.140Z,18.68
2022-12-07T05:01:50.988Z,19.89
2022-12-07T05:04:18.703Z,20.31
2022-12-07T05:06:45.451Z,20.54
2022-12-07T05:09:12.174Z,20.67
2022-12-07T05:11:38.905Z,20.83
2022-12-07T05:14:05.648Z,20.93
2022-12-07T05:16:32.466Z,21.05
2022-12-07T05:18:59.350Z,21.12
2022-12-07T05:21:26.160Z,21.18
2022-12-07T05:23:52.889Z,21.35
2022-12-07T05:26:19.699Z,21.41
2022-12-07T05:28:46.443Z,21.55
2022-12-07T05:31:13.224Z,21.68
2022-12-07T05:33:39.973Z,21.63
2022-12-07T05:36:08.186Z,21.74
2022-12-07T05:38:34.917Z,19.32
2022-12-07T05:41:02.268Z,17.60
2022-12-07T05:43:29.029Z,18.04
2022-12-07T05:45:55.860Z,19.45
2022-12-07T05:48:22.650Z,19.99
2022-12-07T05:50:49.472Z,20.28
2022-12-07T05:53:21.379Z,20.59
2022-12-07T05:55:49.718Z,20.71
2022-12-07T05:58:35.073Z,20.91
2022-12-07T06:01:01.817Z,21.09
2022-12-07T06:03:28.598Z,21.21
2022-12-07T06:05:55.484Z,21.12
2022-12-07T06:08:22.321Z,21.22
2022-12-07T06:11:09.086Z,21.35
2022-12-07T06:13:36.119Z,21.50
2022-12-07T06:16:02.864Z,21.54
2022-12-07T06:18:29.630Z,21.59
2022-12-07T06:20:56.373Z,20.86
2022-12-07T06:23:23.093Z,18.90
2022-12-07T06:25:49.826Z,17.90
2022-12-07T06:28:16.543Z,18.94
2022-12-07T06:30:43.282Z,19.76
2022-12-07T06:33:10.016Z,20.28
2022-12-07T06:35:36.794Z,20.55
2022-12-07T06:38:03.522Z,20.77
2022-12-07T06:40:30.296Z,20.92
2022-12-07T06:42:57.080Z,21.01
2022-12-07T06:45:23.943Z,21.17
2022-12-07T06:47:50.688Z,21.26
2022-12-07T06:50:17.867Z,21.36
2022-12-07T06:52:44.700Z,21.42
2022-12-07T06:55:11.507Z,21.53
2022-12-07T06:57:38.228Z,21.61
2022-12-07T07:00:05.326Z,21.69
2022-12-07T07:02:32.332Z,20.06
2022-12-07T07:04:59.127Z,18.40
2022-12-07T07:07:25.921Z,18.15
2022-12-07T07:09:52.674Z,19.21
2022-12-07T07:12:19.418Z,19.98
2022-12-07T07:14:46.148Z,20.38
2022-12-07T07:17:12.899Z,20.68
2022-12-07T07:19:39.650Z,20.88
2022-12-07T07:22:06.389Z,20.92
2022-12-07T07:24:33.143Z,21.14
2022-12-07T07:26:59.874Z,21.22
2022-12-07T07:29:26.592Z,21.27
2022-12-07T07:31:53.331Z,21.56
2022-12-07T07:34:20.126Z,21.45
2022-12-07T07:36:46.911Z,21.49
2022-12-07T07:39:13.755Z,21.64
2022-12-07T07:41:40.522Z,21.56
2022-12-07T07:44:07.278Z,21.65
2022-12-07T07:46:34.472Z,19.49
2022-12-07T07:49:01.355Z,18.30
2022-12-07T07:51:28.085Z,18.60
2022-12-07T07:53:54.868Z,19.56
2022-12-07T07:56:21.587Z,20.25
2022-12-07T07:58:48.321Z,20.54
2022-12-07T08:01:15.944Z,20.77
2022-12-07T08:03:42.750Z,20.87
2022-12-07T08:06:09.472Z,21.09
2022-12-07T08:08:36.216Z,21.13
2022-12-07T08:11:03.001Z,21.21
2022-12-07T08:13:31.416Z,21.31
2022-12-07T08:15:58.672Z,21.43
2022-12-07T08:18:25.437Z,21.53
2022-12-07T08:20:52.177Z,21.62
2022-12-07T08:23:18.915Z,21.25
2022-12-07T08:25:45.717Z,19.01
2022-12-07T08:28:12.528Z,17.85
2022-12-07T08:30:39.367Z,18.61
2022-12-07T08:33:06.204Z,19.60
2022-12-07T08:35:32.968Z,20.30
2022-12-07T08:37:59.817Z,20.48
2022-12-07T08:40:26.674Z,20.65
2022-12-07T08:42:53.600Z,20.80
2022-12-07T08:45:26.358Z,20.95
2022-12-07T08:47:53.982Z,21.03
2022-12-07T08:50:20.734Z,21.23
2022-12-07T08:52:47.502Z,21.25
2022-12-07T08:55:14.277Z,21.36
2022-12-07T08:57:41.459Z,21.46
2022-12-07T09:00:08.389Z,21.57
2022-12-07T09:02:35.160Z,21.70
2022-12-07T09:05:01.888Z,21.65
2022-12-07T09:07:28.637Z,19.61
2022-12-07T09:09:55.365Z,18.20
2022-12-07T09:12:22.132Z,18.22
2022-12-07T09:14:48.882Z,19.42
2022-12-07T09:17:15.600Z,20.19
2022-12-07T09:19:43.331Z,20.44
2022-12-07T09:22:10.146Z,20.69
2022-12-07T09:24:36.988Z,20.85
2022-12-07T09:27:03.728Z,20.99
2022-12-07T09:29:30.686Z,21.12
2022-12-07T09:31:57.479Z,21.26
2022-12-07T09:34:24.503Z,21.32
2022-12-07T09:36:51.342Z,21.36
2022-12-07T09:39:18.065Z,21.53
2022-12-07T09:41:44.854Z,21.54
2022-12-07T09:44:11.618Z,21.61
2022-12-07T09:46:38.455Z,21.68
2022-12-07T09:49:05.284Z,20.34
2022-12-07T09:51:32.066Z,18.64
2022-12-07T09:53:58.832Z,17.74
2022-12-07T09:56:25.638Z,19.02
2022-12-07T09:58:52.398Z,19.87
2022-12-07T10:01:19.415Z,20.30
2022-12-07T10:03:46.288Z,20.63
2022-12-07T10:06:13.045Z,20.75
2022-12-07T10:08:42.126Z,20.95
2022-12-07T10:11:11.357Z,21.09
2022-12-07T10:13:38.120Z,21.19
2022-12-07T10:16:07.164Z,21.28
2022-12-07T10:18:34.329Z,21.32
2022-12-07T10:21:01.075Z,21.44
2022-12-07T10:23:27.859Z,21.52
2022-12-07T10:25:56.024Z,21.52
2022-12-07T10:28:22.868Z,21.62
2022-12-07T10:30:49.755Z,19.61
2022-12-07T10:33:16.620Z,18.22
2022-12-07T10:35:43.466Z,18.10
2022-12-07T10:38:10.200Z,19.24
2022-12-07T10:40:37.827Z,20.11
2022-12-07T10:43:05.637Z,20.32
2022-12-07T10:45:35.558Z,20.65
2022-12-07T10:48:05.601Z,20.84
2022-12-07T10:50:32.413Z,20.89
2022-12-07T10:52:59.136Z,20.98
2022-12-07T10:55:25.954Z,21.13
2022-12-07T10:57:52.734Z,21.22
2022-12-07T11:00:19.470Z,21.33
2022-12-07T11:02:46.314Z,21.44
2022-12-07T11:05:13.138Z,21.49
2022-12-07T11:07:40.049Z,21.63
2022-12-07T11:10:08.914Z,21.63
2022-12-07T11:12:36.717Z,21.36
2022-12-07T11:15:03.517Z,19.05
2022-12-07T11:17:30.286Z,18.04
2022-12-07T11:19:57.046Z,18.71
2022-12-07T11:22:23.844Z,20.07
2022-12-07T11:24:50.603Z,20.30
2022-12-07T11:27:17.384Z,20.67
2022-12-07T11:29:44.146Z,20.81
2022-12-07T11:32:10.962Z,20.90
2022-12-07T11:34:38.283Z,21.10
2022-12-07T11:37:06.001Z,21.17
2022-12-07T11:39:32.737Z,21.26
2022-12-07T11:41:59.527Z,21.32
2022-12-07T11:44:27.625Z,21.50
2022-12-07T11:46:54.556Z,21.55
2022-12-07T11:49:21.376Z,21.68
2022-12-07T11:51:48.136Z,21.67
2022-12-07T11:54:14.897Z,19.59
2022-12-07T11:56:41.790Z,18.44
2022-12-07T11:59:11.104Z,18.58
2022-12-07T12:01:37.979Z,19.60
2022-12-07T12:04:04.859Z,20.23
2022-12-07T12:06:32.283Z,20.56
2022-12-07T12:11:45.903Z,20.96
2022-12-07T12:16:59.483Z,21.16
2022-12-07T12:19:26.319Z,21.44
2022-12-07T12:21:56.909Z,21.30
2022-12-07T12:24:25.093Z,21.56
2022-12-07T12:26:52.311Z,21.62
2022-12-07T12:29:19.045Z,21.67
2022-12-07T12:31:46.071Z,21.06
2022-12-07T12:34:12.888Z,19.39
2022-12-07T12:36:39.684Z,18.29
2022-12-07T12:39:06.460Z,19.06
2022-12-07T12:41:33.209Z,19.72
2022-12-07T12:43:59.945Z,20.35
2022-12-07T12:46:26.811Z,20.60
2022-12-07T12:48:53.602Z,20.84
2022-12-07T12:51:20.368Z,20.96
2022-12-07T12:53:47.197Z,21.12
2022-12-07T12:56:14.042Z,21.25
2022-12-07T12:58:41.951Z,21.39
2022-12-07T13:01:08.740Z,21.46
2022-12-07T13:03:35.510Z,21.55
2022-12-07T13:06:02.238Z,21.61
2022-12-07T13:08:34.847Z,20.95
2022-12-07T13:11:01.962Z,19.38
2022-12-07T13:13:28.759Z,18.52
2022-12-07T13:15:55.543Z,19.41
2022-12-07T13:18:22.270Z,18.93
2022-12-07T13:20:49.084Z,19.11
2022-12-07T13:23:15.892Z,19.09
2022-12-07T13:25:42.634Z,18.83
2022-12-07T13:28:09.531Z,18.63
2022-12-07T13:30:36.429Z,18.44
2022-12-07T13:33:03.235Z,18.81
2022-12-07T13:35:30.123Z,19.58
2022-12-07T13:37:56.882Z,19.99
2022-12-07T13:40:23.627Z,20.31
2022-12-07T13:42:50.449Z,20.44
2022-12-07T13:45:17.423Z,20.55
2022-12-07T13:47:44.377Z,20.65
2022-12-07T13:50:11.112Z,20.81
2022-12-07T13:52:37.921Z,21.01
2022-12-07T13:55:04.846Z,21.10
2022-12-07T13:57:31.880Z,21.11
2022-12-07T13:59:58.734Z,21.27
2022-12-07T14:02:29.393Z,21.41
2022-12-07T14:04:59.348Z,21.47
2022-12-07T14:07:26.268Z,21.45
2022-12-07T14:09:53.004Z,21.61
2022-12-07T14:12:20.413Z,21.57
2022-12-07T14:14:47.206Z,21.70
2022-12-07T14:17:14.370Z,19.62
2022-12-07T14:19:46.246Z,18.12
2022-12-07T14:22:14.893Z,18.01
2022-12-07T14:24:41.623Z,19.16
2022-12-07T14:27:08.389Z,20.01
2022-12-07T14:29:35.440Z,20.35
2022-12-07T14:32:02.213Z,20.53
2022-12-07T14:34:28.984Z,20.68
2022-12-07T14:36:55.791Z,20.88
2022-12-07T14:39:22.606Z,21.00
2022-12-07T14:41:52.627Z,21.21
2022-12-07T14:44:25.813Z,21.15
2022-12-07T14:49:41.923Z,21.49
2022-12-07T14:54:55.514Z,21.69
2022-12-07T14:57:22.380Z,21.65
2022-12-07T14:59:49.121Z,20.18
2022-12-07T15:02:15.879Z,18.67
2022-12-07T15:04:42.727Z,17.79
2022-12-07T15:07:09.539Z,19.13
2022-12-07T15:09:36.281Z,19.86
2022-12-07T15:12:03.556Z,20.31
2022-12-07T15:14:30.345Z,20.56
2022-12-07T15:17:22.062Z,20.74
2022-12-07T15:19:43.965Z,20.86
2022-12-07T15:22:11.830Z,21.03
2022-12-07T15:24:38.569Z,21.14
2022-12-07T15:27:05.321Z,21.17
2022-12-07T15:29:32.061Z,21.31
2022-12-07T15:31:59.052Z,21.43
2022-12-07T15:34:26.198Z,21.48
2022-12-07T15:36:52.968Z,21.56
2022-12-07T15:39:19.762Z,21.61
2022-12-07T15:41:46.705Z,20.82
2022-12-07T15:44:32.229Z,18.90
2022-12-07T15:46:59.038Z,17.86
2022-12-07T15:49:25.885Z,19.25
2022-12-07T15:51:52.620Z,20.20
2022-12-07T15:54:19.389Z,20.46
2022-12-07T15:56:46.124Z,20.72
2022-12-07T15:59:13.060Z,20.86
2022-12-07T16:01:39.821Z,20.97
2022-12-07T16:04:06.595Z,21.14
2022-12-07T16:06:33.342Z,21.22
2022-12-07T16:09:00.389Z,21.30
2022-12-07T16:11:27.141Z,21.48
2022-12-07T16:13:53.878Z,21.50
2022-12-07T16:16:22.287Z,21.55
2022-12-07T16:18:49.095Z,21.62
2022-12-07T16:21:17.265Z,20.19
2022-12-07T16:23:47.238Z,18.81
2022-12-07T16:26:13.970Z,18.85
2022-12-07T16:28:40.714Z,18.83
2022-12-07T16:31:07.790Z,18.54
2022-12-07T16:33:34.761Z,18.34
2022-12-07T16:36:01.552Z,18.25
2022-12-07T16:38:28.333Z,18.12
2022-12-07T16:40:55.140Z,17.95
2022-12-07T16:43:21.926Z,17.93
2022-12-07T16:45:48.740Z,18.03
2022-12-07T16:48:15.572Z,18.74
2022-12-07T16:50:47.986Z,19.41
2022-12-07T16:53:17.918Z,19.74
2022-12-07T16:55:44.838Z,19.97
2022-12-07T16:58:11.660Z,20.18
2022-12-07T17:00:38.575Z,20.24
2022-12-07T17:03:05.386Z,20.43
2022-12-07T17:05:32.315Z,20.52
2022-12-07T17:07:59.160Z,20.63
2022-12-07T17:10:25.897Z,20.78
2022-12-07T17:12:52.619Z,20.89
2022-12-07T17:15:21.539Z,20.94
2022-12-07T17:17:48.268Z,21.04
2022-12-07T17:20:15.213Z,21.13
2022-12-07T17:22:42.021Z,21.24
2022-12-07T17:25:08.900Z,21.33
2022-12-07T17:27:35.842Z,21.31
2022-12-07T17:30:02.663Z,21.45
2022-12-07T17:32:29.388Z,21.46
2022-12-07T17:34:56.129Z,21.46
2022-12-07T17:37:22.899Z,21.64
2022-12-07T17:39:49.690Z,21.66
2022-12-07T17:42:35.196Z,19.76
2022-12-07T17:45:02.342Z,18.56
2022-12-07T17:47:29.434Z,18.85
2022-12-07T17:49:56.220Z,18.64
2022-12-07T17:52:41.440Z,18.57
2022-12-07T17:55:08.222Z,18.77
2022-12-07T17:57:35.003Z,19.26
2022-12-07T18:00:01.734Z,19.87
2022-12-07T18:02:28.547Z,20.14
2022-12-07T18:04:55.324Z,20.45
2022-12-07T18:07:22.051Z,20.53
2022-12-07T18:09:48.829Z,20.67
2022-12-07T18:12:15.591Z,20.76
2022-12-07T18:14:42.364Z,21.01
2022-12-07T18:17:09.176Z,21.11
2022-12-07T18:19:37.145Z,21.16
2022-12-07T18:22:03.985Z,21.21
2022-12-07T18:24:36.437Z,21.28
2022-12-07T18:27:03.929Z,21.43
2022-12-07T18:29:30.690Z,21.49
2022-12-07T18:31:57.535Z,21.43
2022-12-07T18:34:24.288Z,21.56
2022-12-07T18:36:51.265Z,21.67
2022-12-07T18:39:18.043Z,21.67
2022-12-07T18:41:44.847Z,20.80
2022-12-07T18:44:13.159Z,18.79
2022-12-07T18:46:42.190Z,18.24
2022-12-07T18:49:08.917Z,19.04
2022-12-07T18:51:35.648Z,19.94
2022-12-07T18:54:02.445Z,20.40
2022-12-07T18:56:29.253Z,20.75
2022-12-07T18:59:14.714Z,20.84
2022-12-07T19:01:41.508Z,20.97
2022-12-07T19:04:08.381Z,21.08
2022-12-07T19:06:35.332Z,21.17
2022-12-07T19:09:02.123Z,21.39
2022-12-07T19:11:47.410Z,21.35
2022-12-07T19:14:14.185Z,21.42
2022-12-07T19:16:40.992Z,21.59
2022-12-07T19:19:07.807Z,21.59
2022-12-07T19:21:34.538Z,21.67
2022-12-07T19:24:01.255Z,21.57
2022-12-07T19:26:28.003Z,19.31
2022-12-07T19:28:54.734Z,17.73
2022-12-07T19:31:21.506Z,18.30
2022-12-07T19:33:48.347Z,19.66
2022-12-07T19:36:15.067Z,20.19
2022-12-07T19:38:41.863Z,20.48
2022-12-07T19:41:28.603Z,20.68
2022-12-07T19:43:55.359Z,20.83
2022-12-07T19:46:22.152Z,20.97
2022-12-07T19:48:49.077Z,21.14
2022-12-07T19:51:15.801Z,21.14
2022-12-07T19:53:42.555Z,21.25
2022-12-07T19:56:09.339Z,21.46
2022-12-07T19:58:36.265Z,21.43
2022-12-07T20:01:03.029Z,21.55
2022-12-07T20:03:29.861Z,21.65
2022-12-07T20:05:59.620Z,21.72
2022-12-07T20:08:26.456Z,21.80
2022-12-07T20:10:53.286Z,21.59
2022-12-07T20:13:30.946Z,19.25
2022-12-07T20:16:12.147Z,18.13
2022-12-07T20:18:44.521Z,18.81
2022-12-07T20:21:11.284Z,19.70
2022-12-07T20:23:38.017Z,20.31
2022-12-07T20:26:04.845Z,20.65
2022-12-07T20:28:31.644Z,20.81
2022-12-07T20:30:58.622Z,20.90
2022-12-07T20:33:25.387Z,21.01
2022-12-07T20:35:52.238Z,21.10
2022-12-07T20:38:19.130Z,21.29
2022-12-07T20:40:45.864Z,21.31
2022-12-07T20:43:12.614Z,21.49
2022-12-07T20:45:39.343Z,21.50
2022-12-07T20:48:06.107Z,21.55
2022-12-07T20:50:35.405Z,21.62
2022-12-07T20:53:05.906Z,21.62
2022-12-07T20:55:32.645Z,19.31
2022-12-07T20:57:59.520Z,18.13
2022-12-07T21:00:26.638Z,18.33
2022-12-07T21:02:53.559Z,19.68
2022-12-07T21:05:20.427Z,20.30
2022-12-07T21:07:47.220Z,20.53
2022-12-07T21:10:14.055Z,20.72
2022-12-07T21:12:40.901Z,20.92
2022-12-07T21:15:07.651Z,20.99
2022-12-07T21:17:34.397Z,21.12
2022-12-07T21:20:01.262Z,21.19
2022-12-07T21:22:27.984Z,21.26
2022-12-07T21:24:54.867Z,21.35
2022-12-07T21:27:21.627Z,21.45
2022-12-07T21:29:53.924Z,21.48
2022-12-07T21:32:21.214Z,21.55
2022-12-07T21:34:48.063Z,21.63
2022-12-07T21:37:15.045Z,20.31
2022-12-07T21:39:41.934Z,18.56
2022-12-07T21:42:08.733Z,17.73
2022-12-07T21:44:35.572Z,19.16
2022-12-07T21:47:02.436Z,19.98
2022-12-07T21:49:29.269Z,20.32
2022-12-07T21:51:56.040Z,20.65
2022-12-07T21:54:25.772Z,20.76
2022-12-07T21:56:52.891Z,20.80
2022-12-07T21:59:21.096Z,20.97
2022-12-07T22:01:48.470Z,21.07
2022-12-07T22:04:16.868Z,21.18
2022-12-07T22:06:43.602Z,21.27
2022-12-07T22:09:10.341Z,21.34
2022-12-07T22:11:37.114Z,21.46
2022-12-07T22:14:22.688Z,21.59
2022-12-07T22:16:49.429Z,21.64
2022-12-07T22:19:16.214Z,21.71
2022-12-07T22:21:43.078Z,21.42
2022-12-07T22:24:09.836Z,19.34
2022-12-07T22:26:36.652Z,18.29
2022-12-07T22:29:03.418Z,18.94
2022-12-07T22:31:30.261Z,19.68
2022-12-07T22:33:57.507Z,20.26
2022-12-07T22:36:24.367Z,20.62
2022-12-07T22:38:51.155Z,20.78
2022-12-07T22:41:17.903Z,20.95
2022-12-07T22:43:44.641Z,20.99
2022-12-07T22:46:11.433Z,21.20
2022-12-07T22:48:38.217Z,21.21
2022-12-07T22:51:04.953Z,21.32
2022-12-07T22:53:31.743Z,21.39
2022-12-07T22:55:58.566Z,21.49
2022-12-07T22:58:25.396Z,21.56
2022-12-07T23:00:52.160Z,21.65
2022-12-07T23:03:18.997Z,20.29
2022-12-07T23:05:45.921Z,18.34
2022-12-07T23:08:12.733Z,17.49
2022-12-07T23:10:39.470Z,19.19
2022-12-07T23:13:24.732Z,20.04
2022-12-07T23:15:51.567Z,20.29
2022-12-07T23:18:18.432Z,20.58
2022-12-07T23:20:45.176Z,20.73
2022-12-07T23:23:11.926Z,20.95
2022-12-07T23:25:38.668Z,20.99
2022-12-07T23:28:05.401Z,21.10
2022-12-07T23:30:32.202Z,21.19
2022-12-07T23:32:58.920Z,21.29
2022-12-07T23:35:25.874Z,21.43
2022-12-07T23:37:52.615Z,21.43
2022-12-07T23:40:19.349Z,21.46
2022-12-07T23:42:46.133Z,21.51
2022-12-07T23:45:13.152Z,21.60
2022-12-07T23:47:39.957Z,21.69
2022-12-07T23:50:06.731Z,20.92
2022-12-07T23:52:33.480Z,18.52
2022-12-07T23:55:00.395Z,17.50
2022-12-07T23:57:27.303Z,19.25
2022-12-07T23:59:54.039Z,20.00
